Time;durP1;ratioP1;P1;durP2;ratioP2;P2;SDS_P1;SDS_P2;PMS_P1;PMS_P2;Temp;Humidity;BMP_temperature;BMP_pressure;BME280_temperature;BME280_humidity;BME280_pressure;Samples;Min_cycle;Max_cycle;Signal;HPM_P1;HPM_P2
2023/07/06 00:01:42;;;;;;;3.90;3.13;;;13.90;99.90;;;;;;5141110;27;20580;-78
2023/07/06 00:04:10;;;;;;;5.40;3.10;;;14.00;99.90;;;;;;5121356;28;20208;-79
2023/07/06 00:06:37;;;;;;;5.50;3.25;;;14.00;99.90;;;;;;5136411;27;20204;-79
2023/07/06 00:09:06;;;;;;;5.45;2.92;;;13.90;99.90;;;;;;5121781;27;20665;-79
2023/07/06 00:11:37;;;;;;;6.60;2.95;;;13.90;99.90;;;;;;5137703;27;20265;-78
2023/07/06 00:14:04;;;;;;;6.07;3.30;;;13.90;99.90;;;;;;5138395;27;20200;-79
2023/07/06 00:16:31;;;;;;;4.03;3.20;;;13.90;99.90;;;;;;5140963;27;20677;-78
2023/07/06 00:18:59;;;;;;;3.80;2.85;;;13.80;99.90;;;;;;5139965;27;20220;-79
2023/07/06 00:21:26;;;;;;;3.00;2.58;;;13.80;99.90;;;;;;5139965;27;20212;-79
2023/07/06 00:23:53;;;;;;;4.68;3.05;;;13.80;99.90;;;;;;5131204;27;20224;-78
2023/07/06 00:26:21;;;;;;;4.28;3.10;;;13.80;99.90;;;;;;5124916;27;20193;-78
2023/07/06 00:28:49;;;;;;;6.28;3.00;;;13.60;99.90;;;;;;5141226;27;20196;-78
2023/07/06 00:31:21;;;;;;;4.03;3.00;;;13.70;99.90;;;;;;5134779;27;20228;-78
2023/07/06 00:33:48;;;;;;;5.87;3.07;;;13.70;99.90;;;;;;5135229;27;20231;-78
2023/07/06 00:36:15;;;;;;;2.88;2.42;;;13.80;99.90;;;;;;5137260;27;20231;-78
2023/07/06 00:38:42;;;;;;;6.20;3.30;;;13.60;99.90;;;;;;5133219;27;20245;-78
2023/07/06 00:41:09;;;;;;;5.07;2.97;;;13.60;99.90;;;;;;5121188;28;20224;-77
2023/07/06 00:43:52;;;;;;;6.10;2.77;;;13.60;99.90;;;;;;5125455;27;20269;-78
2023/07/06 00:46:20;;;;;;;3.28;2.67;;;13.60;99.90;;;;;;5124881;27;20192;-79
2023/07/06 00:48:48;;;;;;;5.00;2.90;;;13.70;99.90;;;;;;5144146;27;20207;-78
2023/07/06 00:51:18;;;;;;;13.73;3.17;;;13.60;99.90;;;;;;5141713;27;20223;-77
2023/07/06 00:56:54;;;;;;;5.50;3.03;;;13.70;99.90;;;;;;5780395;22;20297;-89
2023/07/06 01:00:28;;;;;;;4.43;3.33;;;13.60;99.90;;;;;;5007858;28;20216;-89
2023/07/06 01:06:35;;;;;;;5.00;3.30;;;13.60;99.90;;;;;;4991576;28;20217;-89
2023/07/06 01:12:02;;;;;;;5.87;3.80;;;13.90;99.90;;;;;;5094905;22;20588;-79
2023/07/06 01:14:30;;;;;;;6.50;4.10;;;13.90;99.90;;;;;;5081825;28;21308;-78
2023/07/06 01:17:05;;;;;;;7.13;3.67;;;14.00;99.90;;;;;;5086835;28;20250;-78
2023/07/06 01:19:53;;;;;;;5.77;3.50;;;13.90;99.90;;;;;;5089776;28;20213;-78
2023/07/06 01:22:40;;;;;;;7.10;3.80;;;13.90;99.90;;;;;;5075913;28;20213;-78
2023/07/06 01:25:28;;;;;;;6.88;3.90;;;13.90;99.90;;;;;;5084789;28;20204;-78
2023/07/06 01:28:16;;;;;;;4.27;3.57;;;13.90;99.90;;;;;;5092637;28;20205;-78
2023/07/06 01:31:19;;;;;;;4.80;3.72;;;14.10;99.90;;;;;;5085917;28;20201;-78
2023/07/06 01:33:54;;;;;;;7.87;4.20;;;13.90;99.90;;;;;;5093232;28;20208;-78
2023/07/06 01:36:28;;;;;;;9.47;4.37;;;14.00;99.90;;;;;;5086524;28;20201;-77
2023/07/06 01:39:13;;;;;;;5.68;3.90;;;14.00;99.90;;;;;;5085601;28;20232;-78
2023/07/06 01:41:41;;;;;;;5.97;3.42;;;14.00;99.90;;;;;;5085743;28;20228;-77
2023/07/06 01:44:11;;;;;;;7.28;4.10;;;14.10;99.90;;;;;;5093611;28;20564;-78
2023/07/06 01:46:48;;;;;;;7.28;3.78;;;14.10;99.90;;;;;;5085247;28;20205;-78
2023/07/06 01:49:17;;;;;;;6.70;4.10;;;14.10;99.90;;;;;;5081704;28;20614;-78
2023/07/06 01:51:56;;;;;;;8.02;4.40;;;14.10;99.90;;;;;;5085762;28;20222;-78
2023/07/06 01:54:30;;;;;;;6.03;3.60;;;14.10;99.90;;;;;;5089123;28;20273;-78
2023/07/06 01:57:01;;;;;;;6.72;3.80;;;14.10;99.90;;;;;;5090584;28;20197;-78
2023/07/06 01:59:32;;;;;;;8.45;4.15;;;14.10;99.90;;;;;;5082421;28;20226;-77
2023/07/06 02:02:02;;;;;;;5.28;4.00;;;14.10;99.90;;;;;;5083607;28;20230;-77
2023/07/06 02:04:33;;;;;;;8.27;4.05;;;14.00;99.90;;;;;;5088924;28;20219;-78
2023/07/06 02:07:01;;;;;;;6.63;4.80;;;14.10;99.90;;;;;;5086523;28;20583;-78
2023/07/06 02:09:28;;;;;;;7.77;4.63;;;14.10;99.90;;;;;;5086479;28;20198;-78
2023/07/06 02:11:55;;;;;;;7.67;4.83;;;14.20;99.90;;;;;;5088569;28;20229;-78
2023/07/06 02:14:22;;;;;;;7.13;4.45;;;14.20;99.90;;;;;;5084859;28;20296;-78
2023/07/06 02:16:50;;;;;;;7.57;5.07;;;14.20;99.90;;;;;;5077435;28;20198;-78
2023/07/06 02:19:20;;;;;;;8.50;4.57;;;14.20;99.90;;;;;;5084643;28;20199;-78
2023/07/06 02:21:49;;;;;;;5.35;4.22;;;14.30;99.90;;;;;;5082813;28;20229;-78
2023/07/06 02:24:17;;;;;;;9.70;4.80;;;14.20;99.90;;;;;;5090554;28;20193;-78
2023/07/06 02:26:44;;;;;;;8.27;5.03;;;14.30;99.90;;;;;;5082614;28;20201;-77
2023/07/06 02:29:11;;;;;;;7.00;4.43;;;14.20;99.90;;;;;;5083755;28;20657;-78
2023/07/06 02:31:38;;;;;;;7.32;4.60;;;14.20;99.90;;;;;;5087453;28;20224;-78
2023/07/06 02:34:05;;;;;;;6.30;4.78;;;14.20;99.90;;;;;;5091305;28;20205;-78
2023/07/06 02:36:32;;;;;;;8.80;5.37;;;14.20;99.90;;;;;;5091985;28;20206;-78
2023/07/06 02:39:03;;;;;;;6.87;4.90;;;14.30;99.90;;;;;;5088699;28;20259;-78
2023/07/06 02:41:30;;;;;;;6.07;4.90;;;14.30;99.90;;;;;;5081796;28;20330;-78
2023/07/06 02:43:57;;;;;;;10.15;5.13;;;14.30;99.90;;;;;;5092681;28;20209;-78
2023/07/06 02:46:24;;;;;;;11.15;5.47;;;14.30;99.90;;;;;;5095263;28;20208;-78
2023/07/06 02:48:51;;;;;;;10.93;5.33;;;14.30;99.90;;;;;;5095142;28;20202;-78
2023/07/06 02:51:17;;;;;;;7.57;5.10;;;14.30;99.90;;;;;;5092843;28;20222;-78
2023/07/06 02:53:45;;;;;;;8.33;4.60;;;14.30;99.90;;;;;;5095596;28;20293;-78
2023/07/06 02:56:13;;;;;;;6.70;5.22;;;14.30;99.90;;;;;;5086127;28;20236;-78
2023/07/06 02:58:40;;;;;;;8.95;5.32;;;14.30;99.90;;;;;;5085099;28;20202;-78
2023/07/06 03:01:08;;;;;;;9.43;5.93;;;14.30;99.90;;;;;;5097745;28;20233;-78
2023/07/06 03:03:35;;;;;;;9.53;5.93;;;14.30;99.90;;;;;;5089512;28;20205;-77
2023/07/06 03:06:02;;;;;;;9.87;6.37;;;14.20;99.90;;;;;;5090622;28;20556;-79
2023/07/06 03:08:29;;;;;;;10.03;5.57;;;14.20;99.90;;;;;;5092948;28;20206;-78
2023/07/06 03:10:56;;;;;;;9.87;6.20;;;14.30;99.90;;;;;;5085582;28;20221;-79
2023/07/06 03:13:28;;;;;;;10.23;6.27;;;14.30;99.90;;;;;;5078613;28;20203;-77
2023/07/06 03:15:58;;;;;;;13.60;6.90;;;14.20;99.90;;;;;;5084741;28;20217;-78
2023/07/06 03:18:25;;;;;;;10.77;6.47;;;14.20;99.90;;;;;;5093525;28;20214;-78
2023/07/06 03:20:52;;;;;;;12.33;7.73;;;14.10;99.90;;;;;;5087638;28;20726;-77
2023/07/06 03:23:21;;;;;;;13.63;7.67;;;14.10;99.90;;;;;;5087137;28;20212;-78
2023/07/06 03:25:51;;;;;;;14.10;8.48;;;14.10;99.90;;;;;;5086356;28;20213;-78
2023/07/06 03:28:18;;;;;;;10.47;7.43;;;14.10;99.90;;;;;;5095166;28;20226;-78
2023/07/06 03:30:46;;;;;;;13.30;8.27;;;14.10;99.90;;;;;;5087683;28;20217;-78
2023/07/06 03:33:13;;;;;;;11.48;7.90;;;14.10;99.90;;;;;;5084117;28;20217;-78
2023/07/06 03:35:41;;;;;;;11.53;7.93;;;14.10;99.90;;;;;;5091201;28;20500;-78
2023/07/06 03:38:08;;;;;;;13.37;8.60;;;14.10;99.90;;;;;;5093875;28;20216;-78
2023/07/06 03:40:35;;;;;;;14.27;8.40;;;14.10;99.90;;;;;;5096019;28;20227;-78
2023/07/06 03:43:03;;;;;;;14.77;9.70;;;14.10;99.90;;;;;;5087797;28;20579;-79
2023/07/06 03:45:31;;;;;;;13.00;8.70;;;14.10;99.90;;;;;;5089601;28;20275;-79
2023/07/06 03:48:00;;;;;;;15.97;8.93;;;14.10;99.90;;;;;;5084849;28;20242;-79
2023/07/06 03:50:27;;;;;;;14.90;9.67;;;14.20;99.90;;;;;;5086395;28;20304;-79
2023/07/06 03:52:54;;;;;;;15.27;9.00;;;14.20;99.90;;;;;;5084592;28;20209;-79
2023/07/06 03:55:26;;;;;;;13.70;9.13;;;14.30;99.90;;;;;;5081200;28;20550;-78
2023/07/06 03:57:54;;;;;;;18.17;9.60;;;14.30;99.90;;;;;;5081849;28;20241;-80
2023/07/06 04:00:22;;;;;;;12.90;8.77;;;14.30;99.90;;;;;;5090438;28;20217;-78
2023/07/06 04:02:51;;;;;;;15.60;9.30;;;14.20;99.90;;;;;;5078270;28;20698;-78
2023/07/06 04:05:22;;;;;;;13.57;8.95;;;14.20;99.90;;;;;;5080156;28;20514;-78
2023/07/06 04:07:53;;;;;;;15.87;8.93;;;14.20;99.90;;;;;;5087708;28;20245;-78
2023/07/06 04:10:20;;;;;;;12.87;8.30;;;14.20;99.90;;;;;;5083795;28;20226;-78
2023/07/06 04:12:48;;;;;;;12.82;7.97;;;14.20;99.90;;;;;;5083372;28;20229;-78
2023/07/06 04:15:17;;;;;;;12.77;8.23;;;14.50;99.90;;;;;;5086924;28;20210;-78
2023/07/06 04:17:44;;;;;;;11.27;8.10;;;15.00;99.90;;;;;;5087524;28;20214;-79
2023/07/06 04:20:19;;;;;;;12.73;7.93;;;15.30;99.90;;;;;;5082546;28;20756;-78
2023/07/06 04:22:49;;;;;;;16.48;9.20;;;15.40;99.90;;;;;;5086298;28;20271;-79
2023/07/06 04:25:18;;;;;;;11.70;7.75;;;16.20;99.90;;;;;;5084576;28;20215;-79
2023/07/06 04:27:45;;;;;;;12.75;8.20;;;16.30;99.90;;;;;;5092203;28;20289;-78
2023/07/06 04:30:14;;;;;;;10.98;7.13;;;16.20;99.90;;;;;;5083032;28;20224;-78
2023/07/06 04:32:41;;;;;;;12.45;8.40;;;15.20;99.90;;;;;;5090831;28;20577;-78
2023/07/06 04:35:11;;;;;;;12.68;8.05;;;15.40;99.90;;;;;;5087451;28;20206;-77
2023/07/06 04:37:38;;;;;;;14.65;8.45;;;15.00;99.90;;;;;;5083381;28;20202;-78
2023/07/06 04:40:11;;;;;;;11.35;8.23;;;14.90;99.90;;;;;;5091116;28;20228;-78
2023/07/06 04:42:40;;;;;;;11.60;7.65;;;14.80;99.90;;;;;;5090270;28;20233;-80
2023/07/06 04:45:09;;;;;;;10.82;7.43;;;14.90;99.90;;;;;;5092363;28;20213;-79
2023/07/06 04:47:38;;;;;;;10.15;7.60;;;14.90;99.90;;;;;;5088151;28;20209;-79
2023/07/06 04:50:06;;;;;;;12.75;8.23;;;14.80;99.90;;;;;;5078829;28;20205;-78
2023/07/06 04:52:33;;;;;;;11.88;7.88;;;14.70;99.90;;;;;;5086422;28;20226;-78
2023/07/06 04:55:01;;;;;;;10.70;7.35;;;14.80;99.90;;;;;;5089259;28;20210;-79
2023/07/06 04:57:30;;;;;;;11.52;8.18;;;14.70;99.90;;;;;;5076571;28;20597;-79
2023/07/06 04:59:57;;;;;;;10.30;7.47;;;14.90;99.90;;;;;;5082421;28;20209;-79
2023/07/06 05:02:27;;;;;;;14.90;8.32;;;14.80;99.90;;;;;;5088047;28;20232;-79
2023/07/06 05:04:54;;;;;;;10.55;7.38;;;14.80;99.90;;;;;;5084355;28;20206;-79
2023/07/06 05:07:21;;;;;;;10.18;7.38;;;14.70;99.90;;;;;;5077815;28;20272;-79
2023/07/06 05:09:49;;;;;;;10.45;7.13;;;14.90;99.90;;;;;;5087239;28;20267;-79
2023/07/06 05:12:16;;;;;;;9.75;7.22;;;14.90;99.90;;;;;;5087240;28;20225;-78
2023/07/06 05:14:45;;;;;;;14.15;6.90;;;15.00;99.90;;;;;;5079562;28;20664;-78
2023/07/06 05:17:11;;;;;;;8.98;6.15;;;15.00;99.90;;;;;;5082837;28;20214;-78
2023/07/06 05:19:38;;;;;;;11.70;6.50;;;15.20;99.90;;;;;;5087502;28;20221;-79
2023/07/06 05:22:06;;;;;;;17.90;10.40;;;15.10;99.90;;;;;;5081977;28;20252;-78
2023/07/06 05:24:33;;;;;;;12.20;6.63;;;15.40;99.90;;;;;;5082742;28;20276;-79
2023/07/06 05:26:59;;;;;;;11.27;6.13;;;15.40;99.90;;;;;;5085026;28;20201;-79
2023/07/06 05:29:26;;;;;;;11.43;6.45;;;15.30;99.90;;;;;;5083715;28;20201;-79
2023/07/06 05:31:54;;;;;;;7.03;5.00;;;15.20;99.90;;;;;;5081429;28;20218;-80
2023/07/06 05:34:21;;;;;;;10.38;5.93;;;15.40;99.90;;;;;;5082112;28;20297;-80
2023/07/06 05:36:48;;;;;;;10.95;5.82;;;15.50;99.90;;;;;;5083020;28;20206;-79
2023/07/06 05:39:15;;;;;;;9.32;5.25;;;15.70;99.90;;;;;;5080432;28;20202;-80
2023/07/06 05:41:43;;;;;;;7.05;5.13;;;15.90;99.90;;;;;;5084690;28;20229;-80
2023/07/06 05:44:10;;;;;;;10.10;5.45;;;16.90;99.90;;;;;;5087965;28;20293;-80
2023/07/06 05:46:37;;;;;;;8.68;5.45;;;16.50;99.90;;;;;;5075717;28;20206;-80
2023/07/06 05:49:05;;;;;;;8.95;5.03;;;16.60;99.90;;;;;;5082959;28;20206;-80
2023/07/06 05:51:35;;;;;;;7.95;5.53;;;16.40;99.90;;;;;;5078433;28;20222;-80
2023/07/06 05:54:05;;;;;;;9.93;5.00;;;16.40;99.90;;;;;;5080309;28;20701;-78
2023/07/06 05:56:32;;;;;;;7.38;5.00;;;16.30;99.90;;;;;;5084779;28;20211;-79
2023/07/06 05:58:59;;;;;;;7.38;5.18;;;16.40;99.90;;;;;;5086672;28;20216;-79
2023/07/06 06:01:29;;;;;;;10.00;5.00;;;16.10;99.90;;;;;;5083005;28;20229;-78
2023/07/06 06:03:56;;;;;;;10.05;5.50;;;16.00;99.90;;;;;;5080495;28;20210;-78
2023/07/06 06:06:26;;;;;;;11.05;5.35;;;16.10;99.90;;;;;;5083187;28;20207;-79
2023/07/06 06:08:55;;;;;;;10.55;5.90;;;15.90;99.90;;;;;;5086068;28;20210;-79
2023/07/06 06:11:22;;;;;;;8.70;5.43;;;15.80;99.90;;;;;;5085643;28;20228;-79
2023/07/06 06:13:52;;;;;;;6.32;4.65;;;15.70;99.90;;;;;;5084012;28;20207;-79
2023/07/06 06:16:18;;;;;;;8.35;5.45;;;15.70;99.90;;;;;;5089962;28;20208;-79
2023/07/06 06:18:45;;;;;;;9.40;5.10;;;15.90;99.90;;;;;;5086869;28;20202;-78
2023/07/06 06:21:12;;;;;;;6.18;4.57;;;15.90;99.90;;;;;;5083647;28;20221;-78
2023/07/06 06:23:42;;;;;;;7.35;4.95;;;15.80;99.90;;;;;;5090829;28;20216;-80
2023/07/06 06:26:08;;;;;;;8.30;5.00;;;15.90;99.90;;;;;;5087723;28;20729;-80
2023/07/06 06:28:36;;;;;;;7.07;4.35;;;16.00;99.90;;;;;;5092202;28;20237;-80
2023/07/06 06:31:03;;;;;;;7.30;5.13;;;16.20;99.90;;;;;;5089987;28;20232;-79
2023/07/06 06:33:30;;;;;;;8.05;5.20;;;16.20;99.90;;;;;;5093512;28;20216;-80
2023/07/06 06:36:00;;;;;;;9.45;4.72;;;16.00;99.90;;;;;;5083599;28;20210;-80
2023/07/06 06:38:27;;;;;;;7.70;4.80;;;16.00;99.90;;;;;;5086299;28;20206;-80
2023/07/06 06:40:57;;;;;;;8.38;5.05;;;16.30;99.90;;;;;;5086417;28;20703;-80
2023/07/06 06:43:23;;;;;;;12.25;4.63;;;16.20;99.90;;;;;;5080249;28;20224;-80
2023/07/06 06:45:50;;;;;;;8.48;5.55;;;16.30;99.90;;;;;;5087550;28;20212;-80
2023/07/06 06:48:17;;;;;;;7.90;5.07;;;16.30;99.90;;;;;;5092513;28;20210;-80
2023/07/06 06:50:45;;;;;;;6.53;4.53;;;16.20;99.90;;;;;;5088492;28;20613;-80
2023/07/06 06:53:16;;;;;;;7.25;5.15;;;16.30;99.90;;;;;;5081818;28;20262;-79
2023/07/06 06:55:43;;;;;;;9.85;4.72;;;16.40;99.90;;;;;;5087957;28;20241;-80
2023/07/06 06:58:12;;;;;;;7.55;4.70;;;16.40;99.90;;;;;;5088358;28;20664;-79
2023/07/06 07:00:44;;;;;;;9.20;5.00;;;16.60;99.90;;;;;;5082613;28;20272;-80
2023/07/06 07:03:13;;;;;;;8.63;4.60;;;16.70;99.90;;;;;;5090923;28;20727;-79
2023/07/06 07:05:40;;;;;;;9.02;4.57;;;16.90;99.90;;;;;;5090055;28;20301;-79
2023/07/06 07:08:07;;;;;;;7.43;4.57;;;16.90;99.90;;;;;;5086866;28;20304;-79
2023/07/06 07:10:34;;;;;;;8.15;4.40;;;17.00;99.90;;;;;;5093292;28;20228;-79
2023/07/06 07:13:02;;;;;;;6.70;4.10;;;17.10;99.90;;;;;;5091668;28;20618;-80
2023/07/06 07:15:31;;;;;;;7.60;4.25;;;17.30;99.90;;;;;;5084964;28;20570;-80
2023/07/06 07:17:59;;;;;;;9.27;5.75;;;17.30;99.90;;;;;;5087212;28;20226;-81
2023/07/06 07:20:27;;;;;;;5.35;3.55;;;17.40;99.90;;;;;;5092401;28;20225;-79
2023/07/06 07:22:54;;;;;;;4.15;3.75;;;17.30;99.90;;;;;;5087334;28;20260;-80
2023/07/06 07:25:21;;;;;;;7.10;3.90;;;17.50;99.90;;;;;;5084302;28;20202;-79
2023/07/06 07:27:50;;;;;;;7.82;3.90;;;17.50;99.90;;;;;;5092357;28;20247;-80
2023/07/06 07:30:21;;;;;;;8.05;3.58;;;17.60;99.90;;;;;;5090278;28;20353;-80
2023/07/06 07:32:50;;;;;;;5.78;3.40;;;17.80;99.90;;;;;;5083264;28;20252;-80
2023/07/06 07:35:18;;;;;;;7.70;3.70;;;17.80;99.90;;;;;;5087336;28;23157;-79
2023/07/06 07:37:50;;;;;;;8.93;4.03;;;17.60;99.90;;;;;;5093452;28;20217;-78
2023/07/06 07:40:18;;;;;;;4.97;3.97;;;17.90;99.90;;;;;;5091680;28;20224;-78
2023/07/06 07:42:47;;;;;;;9.10;4.03;;;17.60;99.90;;;;;;5086863;28;20225;-79
2023/07/06 07:45:14;;;;;;;6.47;4.00;;;17.70;99.90;;;;;;5087552;28;20275;-78
2023/07/06 07:47:41;;;;;;;5.60;3.80;;;18.10;99.90;;;;;;5088212;28;20210;-80
2023/07/06 07:50:10;;;;;;;7.30;3.67;;;18.20;99.90;;;;;;5086671;28;20242;-79
2023/07/06 07:52:37;;;;;;;7.55;3.92;;;18.10;99.90;;;;;;5094449;28;20225;-80
2023/07/06 07:55:06;;;;;;;4.95;3.50;;;18.40;99.90;;;;;;5083252;28;20209;-79
2023/07/06 07:57:33;;;;;;;10.05;4.50;;;18.40;99.90;;;;;;5082852;28;20209;-78
2023/07/06 08:00:00;;;;;;;5.90;4.50;;;18.20;99.90;;;;;;5079204;28;20212;-78
2023/07/06 08:02:28;;;;;;;5.60;3.65;;;18.20;99.90;;;;;;5074725;28;20226;-79
2023/07/06 08:04:57;;;;;;;5.10;3.42;;;18.40;99.90;;;;;;5076762;28;20710;-79
2023/07/06 08:07:25;;;;;;;10.95;4.10;;;18.60;99.90;;;;;;5077909;28;20271;-79
2023/07/06 08:09:52;;;;;;;7.07;3.83;;;18.40;99.90;;;;;;5075800;28;20213;-79
2023/07/06 08:12:20;;;;;;;7.97;3.90;;;18.40;99.90;;;;;;5079939;28;20221;-78
2023/07/06 08:14:48;;;;;;;5.07;3.50;;;18.40;99.90;;;;;;5079826;28;20687;-79
2023/07/06 08:17:16;;;;;;;7.72;4.07;;;18.40;99.90;;;;;;5086935;28;20251;-78
2023/07/06 08:19:45;;;;;;;8.32;3.80;;;18.20;99.90;;;;;;5085902;28;20217;-79
2023/07/06 08:22:13;;;;;;;5.75;3.10;;;18.60;99.90;;;;;;5084095;28;20229;-78
2023/07/06 08:24:41;;;;;;;5.20;3.83;;;18.60;99.90;;;;;;5083399;28;20202;-80
2023/07/06 08:27:09;;;;;;;7.20;3.40;;;18.40;99.90;;;;;;5073225;28;20199;-79
2023/07/06 08:29:43;;;;;;;6.57;3.13;;;18.30;99.90;;;;;;5074790;28;20210;-79
2023/07/06 08:32:12;;;;;;;5.88;3.20;;;18.40;99.90;;;;;;5076015;28;20350;-80
2023/07/06 08:34:38;;;;;;;5.88;2.90;;;18.40;99.90;;;;;;5074146;28;20206;-79
2023/07/06 08:37:06;;;;;;;3.45;2.80;;;18.60;99.90;;;;;;5073650;28;20585;-79
2023/07/06 08:39:33;;;;;;;8.18;3.20;;;18.30;99.90;;;;;;5077170;28;20216;-79
2023/07/06 08:42:02;;;;;;;9.40;3.33;;;18.20;99.90;;;;;;5073315;28;20222;-78
2023/07/06 08:44:30;;;;;;;6.57;3.22;;;18.10;99.90;;;;;;5078873;28;20206;-79
2023/07/06 08:46:57;;;;;;;4.63;2.85;;;18.20;99.90;;;;;;5076228;28;20205;-78
2023/07/06 08:49:30;;;;;;;3.55;2.60;;;18.60;99.90;;;;;;5077940;28;20218;-78
2023/07/06 08:52:02;;;;;;;4.63;2.75;;;19.30;99.90;;;;;;5075546;28;20432;-78
2023/07/06 08:54:34;;;;;;;4.13;2.78;;;19.60;99.90;;;;;;5082843;28;20210;-79
2023/07/06 08:57:04;;;;;;;4.78;2.65;;;19.50;99.90;;;;;;5082184;28;20236;-79
2023/07/06 08:59:37;;;;;;;3.88;2.78;;;19.10;99.90;;;;;;5079055;28;20737;-79
2023/07/06 09:02:17;;;;;;;5.13;2.50;;;19.60;99.90;;;;;;5081714;28;20228;-79
2023/07/06 09:04:46;;;;;;;3.65;2.40;;;20.10;99.90;;;;;;5083397;28;20285;-79
2023/07/06 09:07:15;;;;;;;3.42;2.58;;;20.40;99.90;;;;;;5079950;28;20292;-79
2023/07/06 09:09:44;;;;;;;6.40;2.50;;;20.80;99.90;;;;;;5080429;28;20206;-79
2023/07/06 09:12:26;;;;;;;4.55;2.35;;;20.80;99.90;;;;;;5089224;28;20217;-81
2023/07/06 09:14:57;;;;;;;5.43;2.50;;;21.10;99.90;;;;;;5078625;28;20216;-80
2023/07/06 09:17:24;;;;;;;2.75;2.20;;;21.00;99.90;;;;;;5083078;28;20197;-80
2023/07/06 09:19:52;;;;;;;8.32;2.45;;;20.50;99.90;;;;;;5083355;28;20288;-81
2023/07/06 09:22:21;;;;;;;23.40;8.20;;;20.30;99.90;;;;;;5092799;28;20237;-81
2023/07/06 09:24:48;;;;;;;6.97;3.30;;;20.40;99.90;;;;;;5083694;28;20258;-79
2023/07/06 09:27:19;;;;;;;7.47;2.95;;;20.10;99.90;;;;;;5081241;28;20239;-80
2023/07/06 09:29:57;;;;;;;5.50;2.35;;;20.90;99.90;;;;;;5087107;28;20224;-80
2023/07/06 09:32:24;;;;;;;5.38;2.60;;;20.50;99.90;;;;;;5084401;28;20217;-80
2023/07/06 09:34:54;;;;;;;5.60;2.75;;;20.30;99.90;;;;;;5088173;28;20212;-79
2023/07/06 09:37:21;;;;;;;4.68;2.40;;;20.40;99.90;;;;;;5083771;28;20202;-81
2023/07/06 09:39:58;;;;;;;5.15;2.20;;;20.30;99.90;;;;;;5089368;28;20612;-80
2023/07/06 09:42:28;;;;;;;3.63;2.20;;;20.40;99.90;;;;;;5087422;28;20229;-82
2023/07/06 09:44:55;;;;;;;4.35;2.20;;;20.40;99.90;;;;;;5089085;28;20217;-78
2023/07/06 09:47:23;;;;;;;2.55;2.03;;;20.30;99.90;;;;;;5090175;28;20205;-80
2023/07/06 09:49:55;;;;;;;2.53;2.00;;;20.60;99.90;;;;;;5084297;28;20208;-79
2023/07/06 09:52:23;;;;;;;4.63;2.22;;;21.50;99.90;;;;;;5081071;28;20249;-80
2023/07/06 09:54:57;;;;;;;3.78;2.20;;;22.50;99.90;;;;;;5090248;28;20208;-81
2023/07/06 09:57:28;;;;;;;5.60;2.47;;;22.40;99.90;;;;;;5081728;28;20218;-79
2023/07/06 09:59:55;;;;;;;4.28;2.70;;;22.70;99.90;;;;;;5076784;28;20285;-78
2023/07/06 10:02:34;;;;;;;5.10;2.22;;;23.00;99.90;;;;;;5086540;28;20234;-80
2023/07/06 10:05:14;;;;;;;6.90;2.30;;;22.70;99.90;;;;;;5085824;28;20952;-79
2023/07/06 10:07:48;;;;;;;2.65;1.80;;;22.70;99.90;;;;;;5078417;28;20202;-79
2023/07/06 10:10:21;;;;;;;2.53;1.80;;;23.20;99.90;;;;;;5080232;28;20210;-80
2023/07/06 10:12:58;;;;;;;3.35;1.85;;;22.90;99.90;;;;;;5084337;28;20249;-80
2023/07/06 10:15:30;;;;;;;2.58;1.50;;;23.40;99.90;;;;;;5080193;28;20210;-79
2023/07/06 10:18:03;;;;;;;3.75;1.98;;;23.20;99.90;;;;;;5080470;28;20208;-80
2023/07/06 10:20:36;;;;;;;2.40;1.80;;;23.10;99.90;;;;;;5076668;28;20203;-79
2023/07/06 10:23:20;;;;;;;2.75;2.03;;;22.40;99.90;;;;;;5084235;28;20214;-80
2023/07/06 10:25:57;;;;;;;4.03;1.90;;;23.40;99.90;;;;;;5080307;28;20206;-79
2023/07/06 10:28:30;;;;;;;4.10;2.00;;;23.40;99.90;;;;;;5078610;28;20237;-79
2023/07/06 10:30:59;;;;;;;2.15;1.95;;;23.70;99.90;;;;;;5077304;28;20229;-79
2023/07/06 10:33:31;;;;;;;3.25;2.17;;;23.80;99.90;;;;;;5092731;28;20212;-80
2023/07/06 10:35:59;;;;;;;3.70;2.72;;;24.20;99.90;;;;;;5089169;28;20201;-80
2023/07/06 10:38:28;;;;;;;3.78;2.45;;;24.10;99.90;;;;;;5088317;28;20204;-80
2023/07/06 10:41:28;;;;;;;4.28;2.00;;;23.70;99.90;;;;;;5090644;28;20234;-80
2023/07/06 10:44:01;;;;;;;2.10;1.80;;;24.50;99.90;;;;;;5085432;28;20252;-81
2023/07/06 10:46:32;;;;;;;3.35;1.90;;;23.80;99.90;;;;;;5079663;28;20205;-79
2023/07/06 10:49:16;;;;;;;2.08;1.80;;;24.40;99.90;;;;;;5083195;28;20205;-79
2023/07/06 10:51:48;;;;;;;2.95;2.13;;;24.20;99.90;;;;;;5085227;28;20225;-78
2023/07/06 10:54:18;;;;;;;4.25;2.05;;;24.10;99.90;;;;;;5082970;28;20206;-77
2023/07/06 10:56:50;;;;;;;5.32;2.25;;;23.80;99.90;;;;;;5080053;28;20199;-80
2023/07/06 10:59:23;;;;;;;2.88;1.88;;;23.50;99.90;;;;;;5076622;28;20670;-77
2023/07/06 11:02:07;;;;;;;2.75;1.92;;;22.30;99.90;;;;;;5077893;28;20616;-77
2023/07/06 11:04:52;;;;;;;4.75;1.85;;;22.80;99.90;;;;;;5073614;28;20198;-77
2023/07/06 11:07:39;;;;;;;2.95;1.95;;;22.70;99.90;;;;;;5083581;28;20628;-78
2023/07/06 11:10:36;;;;;;;4.00;2.00;;;22.50;99.90;;;;;;5084344;28;20247;-78
2023/07/06 11:13:19;;;;;;;2.15;1.77;;;22.70;99.90;;;;;;5059927;28;20202;-78
2023/07/06 11:16:04;;;;;;;3.42;1.75;;;23.10;99.90;;;;;;5078495;28;20198;-78
2023/07/06 11:18:37;;;;;;;3.92;2.10;;;23.00;99.90;;;;;;5081204;28;20290;-78
2023/07/06 11:21:15;;;;;;;3.45;1.80;;;23.00;99.90;;;;;;5086191;28;20225;-78
2023/07/06 11:23:48;;;;;;;2.28;1.83;;;22.70;99.90;;;;;;5079646;28;20218;-80
2023/07/06 11:26:31;;;;;;;3.05;1.75;;;22.90;99.90;;;;;;5082717;28;20210;-78
2023/07/06 11:28:58;;;;;;;2.42;1.88;;;23.40;99.90;;;;;;5088508;28;20213;-79
2023/07/06 11:31:36;;;;;;;3.10;1.83;;;23.30;99.90;;;;;;5091720;28;20233;-78
2023/07/06 11:34:09;;;;;;;2.38;1.80;;;24.20;99.90;;;;;;5092936;28;20646;-79
2023/07/06 11:36:43;;;;;;;2.58;1.90;;;24.50;99.90;;;;;;5084365;28;20288;-78
2023/07/06 11:39:18;;;;;;;2.50;1.65;;;24.80;99.90;;;;;;5081867;28;20206;-79
2023/07/06 11:41:53;;;;;;;1.65;1.50;;;24.60;99.90;;;;;;5084771;28;20236;-79
2023/07/06 11:44:35;;;;;;;3.25;1.55;;;24.90;99.90;;;;;;5089569;28;20218;-79
2023/07/06 11:47:24;;;;;;;3.42;1.58;;;25.10;99.90;;;;;;5076994;28;20658;-79
2023/07/06 11:49:52;;;;;;;6.10;1.73;;;24.70;99.90;;;;;;5083833;28;20214;-79
2023/07/06 11:52:22;;;;;;;2.08;1.55;;;25.10;99.90;;;;;;5092761;28;20218;-80
2023/07/06 11:55:04;;;;;;;1.60;1.45;;;25.20;99.90;;;;;;5084284;28;20650;-79
2023/07/06 11:57:42;;;;;;;7.13;6.35;;;25.70;99.90;;;;;;5092698;28;20190;-80
2023/07/06 12:00:18;;;;;;;3.88;2.20;;;24.90;99.90;;;;;;5092652;28;20211;-80
2023/07/06 12:02:53;;;;;;;4.75;1.75;;;24.60;99.90;;;;;;5083888;28;20233;-80
2023/07/06 12:05:25;;;;;;;2.40;1.52;;;24.60;99.90;;;;;;5093517;28;20196;-80
2023/07/06 12:07:58;;;;;;;1.83;1.55;;;24.10;99.90;;;;;;5095622;28;20194;-80
2023/07/06 12:10:25;;;;;;;4.00;1.60;;;24.40;99.90;;;;;;5093918;28;20217;-80
2023/07/06 12:12:54;;;;;;;2.38;1.67;;;25.00;99.90;;;;;;5088269;28;20202;-79
2023/07/06 12:15:22;;;;;;;2.80;1.63;;;24.70;99.90;;;;;;5093308;28;20216;-79
2023/07/06 12:17:55;;;;;;;3.35;1.85;;;24.30;99.90;;;;;;5085985;28;20564;-79
2023/07/06 12:20:23;;;;;;;1.70;1.60;;;24.00;99.90;;;;;;5088142;28;20202;-78
2023/07/06 12:22:52;;;;;;;2.53;1.58;;;24.00;99.90;;;;;;5087252;28;20231;-78
2023/07/06 12:25:19;;;;;;;1.63;1.50;;;24.30;99.90;;;;;;5089446;28;20208;-78
2023/07/06 12:27:46;;;;;;;2.63;1.60;;;24.60;99.90;;;;;;5087167;28;20212;-79
2023/07/06 12:30:15;;;;;;;2.40;1.52;;;24.10;99.90;;;;;;5087271;28;20201;-79
2023/07/06 12:32:46;;;;;;;2.20;1.60;;;24.00;99.90;;;;;;5087716;28;20218;-79
2023/07/06 12:35:14;;;;;;;1.67;1.30;;;24.00;99.90;;;;;;5087738;28;20579;-79
2023/07/06 12:37:43;;;;;;;1.95;1.20;;;24.10;99.90;;;;;;5088754;28;20202;-79
2023/07/06 12:40:19;;;;;;;2.42;1.73;;;23.70;99.90;;;;;;5081161;28;20657;-80
2023/07/06 12:42:46;;;;;;;2.15;1.60;;;24.70;99.90;;;;;;5084556;28;20586;-80
2023/07/06 12:45:16;;;;;;;1.67;1.58;;;25.30;99.90;;;;;;5092592;28;20202;-80
2023/07/06 12:47:43;;;;;;;5.97;4.50;;;25.20;99.90;;;;;;5093063;28;20201;-80
2023/07/06 12:50:14;;;;;;;9.13;5.72;;;24.90;99.90;;;;;;5092670;28;20243;-80
2023/07/06 12:52:43;;;;;;;4.60;2.60;;;24.80;99.90;;;;;;5077079;28;20217;-80
2023/07/06 12:55:15;;;;;;;3.10;1.60;;;25.60;99.90;;;;;;5088299;28;20208;-80
2023/07/06 12:57:43;;;;;;;2.08;1.55;;;25.90;99.90;;;;;;5082588;28;20202;-81
2023/07/06 13:00:17;;;;;;;2.42;1.48;;;24.80;99.90;;;;;;5081830;28;20209;-79
2023/07/06 13:02:44;;;;;;;2.97;1.50;;;24.60;99.90;;;;;;5088867;28;20557;-79
2023/07/06 13:05:16;;;;;;;3.13;1.65;;;24.40;99.90;;;;;;5082634;28;20252;-79
2023/07/06 13:07:50;;;;;;;2.25;1.35;;;23.90;99.90;;;;;;5085539;28;20225;-79
2023/07/06 13:10:19;;;;;;;3.22;1.50;;;24.30;99.90;;;;;;5092075;28;20637;-80
2023/07/06 13:12:49;;;;;;;3.33;1.52;;;24.80;99.90;;;;;;5080257;28;20214;-79